createdAt,value
2022-10-26T00:02:13.979Z,90.30
2022-10-26T00:04:43.983Z,90.30
2022-10-26T00:07:14.247Z,90.30
2022-10-26T00:09:44.083Z,90.30
2022-10-26T00:12:13.955Z,90.30
2022-10-26T00:14:44.582Z,90.30
2022-10-26T00:17:14.365Z,90.40
2022-10-26T00:19:44.397Z,90.30
2022-10-26T00:22:14.480Z,90.40
2022-10-26T00:24:44.303Z,90.20
2022-10-26T00:27:14.092Z,90.20
2022-10-26T00:29:44.277Z,90.10
2022-10-26T00:32:14.179Z,89.90
2022-10-26T00:34:43.998Z,89.90
2022-10-26T00:37:13.824Z,89.40
2022-10-26T00:39:43.617Z,89.70
2022-10-26T00:42:22.355Z,89.70
2022-10-26T00:45:02.780Z,89.90
2022-10-26T00:47:53.216Z,90.00
2022-10-26T00:50:32.219Z,90.10
2022-10-26T00:53:05.418Z,90.20
2022-10-26T00:55:38.168Z,90.40
2022-10-26T00:58:11.092Z,90.60
2022-10-26T01:00:43.126Z,90.70
2022-10-26T01:03:13.616Z,90.80
2022-10-26T01:05:44.423Z,90.70
2022-10-26T01:08:14.152Z,90.80
2022-10-26T01:10:46.106Z,90.90
2022-10-26T01:13:17.845Z,91.10
2022-10-26T01:16:22.075Z,90.70
2022-10-26T01:19:22.514Z,90.90
2022-10-26T01:22:05.504Z,90.50
2022-10-26T01:25:01.755Z,90.10
2022-10-26T01:27:41.072Z,90.10
2022-10-26T01:30:42.794Z,90.00
2022-10-26T01:33:26.899Z,89.00
2022-10-26T01:36:24.824Z,88.40
2022-10-26T01:39:23.160Z,88.10
2022-10-26T01:41:57.145Z,87.60
2022-10-26T01:44:47.530Z,87.70
2022-10-26T01:47:20.114Z,87.20
2022-10-26T01:49:56.816Z,86.50
2022-10-26T01:52:27.481Z,86.30
2022-10-26T01:55:33.902Z,85.70
2022-10-26T01:58:18.272Z,85.10
2022-10-26T02:01:01.123Z,84.70
2022-10-26T02:03:56.835Z,83.30
2022-10-26T02:06:43.265Z,83.10
2022-10-26T02:09:40.917Z,82.60
2022-10-26T02:12:23.461Z,81.60
2022-10-26T02:15:03.141Z,81.80
2022-10-26T02:17:58.545Z,82.10
2022-10-26T02:20:36.139Z,81.80
2022-10-26T02:23:09.732Z,82.20
2022-10-26T02:25:44.556Z,81.70
2022-10-26T02:28:19.857Z,81.50
2022-10-26T02:30:53.062Z,81.50
2022-10-26T02:33:24.535Z,81.00
2022-10-26T02:35:56.962Z,81.50
2022-10-26T02:38:28.781Z,81.30
2022-10-26T02:41:00.345Z,81.80
2022-10-26T02:46:12.123Z,82.00
2022-10-26T02:48:42.074Z,81.00
2022-10-26T02:51:27.050Z,82.70
2022-10-26T02:54:18.368Z,82.10
2022-10-26T02:56:57.660Z,81.10
2022-10-26T02:59:31.761Z,82.10
2022-10-26T03:02:05.451Z,82.00
2022-10-26T03:04:37.237Z,81.40
2022-10-26T03:07:07.161Z,82.20
2022-10-26T03:09:37.011Z,82.20
2022-10-26T03:12:07.200Z,81.90
2022-10-26T03:14:37.308Z,82.00
2022-10-26T03:17:07.165Z,80.10
2022-10-26T03:19:37.068Z,80.30
2022-10-26T03:22:07.395Z,81.90
2022-10-26T03:24:36.692Z,80.20
2022-10-26T03:27:06.510Z,81.40
2022-10-26T03:29:36.490Z,82.10
2022-10-26T03:32:06.398Z,82.00
2022-10-26T03:34:36.380Z,82.00
2022-10-26T03:37:06.356Z,81.20
2022-10-26T03:39:36.174Z,81.70
2022-10-26T03:42:06.055Z,81.50
2022-10-26T03:44:36.055Z,80.80
2022-10-26T03:47:05.856Z,81.10
2022-10-26T03:49:35.610Z,80.00
2022-10-26T03:52:05.706Z,80.70
2022-10-26T03:54:35.690Z,81.40
2022-10-26T03:57:05.487Z,82.30
2022-10-26T03:59:35.483Z,83.30
2022-10-26T04:02:05.295Z,82.90
2022-10-26T04:04:35.128Z,83.20
2022-10-26T04:07:04.943Z,83.10
2022-10-26T04:09:34.737Z,83.20
2022-10-26T04:12:04.568Z,83.10
2022-10-26T04:14:34.471Z,82.30
2022-10-26T04:17:04.296Z,82.30
2022-10-26T04:19:34.187Z,83.20
2022-10-26T04:22:04.229Z,83.40
2022-10-26T04:24:34.284Z,84.30
2022-10-26T04:27:04.284Z,84.90
2022-10-26T04:29:35.493Z,83.90
2022-10-26T04:32:05.564Z,82.50
2022-10-26T04:34:36.025Z,80.80
2022-10-26T04:37:05.878Z,81.10
2022-10-26T04:39:35.794Z,81.40
2022-10-26T04:42:05.909Z,82.30
2022-10-26T04:44:35.799Z,82.60
2022-10-26T04:47:05.752Z,80.80
2022-10-26T04:49:35.665Z,79.80
2022-10-26T04:52:09.476Z,78.60
2022-10-26T04:54:39.443Z,77.70
2022-10-26T04:57:09.265Z,77.50
2022-10-26T04:59:39.071Z,77.20
2022-10-26T05:02:08.941Z,77.40
2022-10-26T05:04:38.817Z,78.00
2022-10-26T05:07:08.712Z,77.80
2022-10-26T05:09:39.436Z,77.90
2022-10-26T05:12:09.259Z,77.70
2022-10-26T05:14:39.086Z,77.30
2022-10-26T05:17:08.951Z,77.10
2022-10-26T05:19:38.956Z,75.10
2022-10-26T05:22:08.187Z,73.00
2022-10-26T05:24:38.005Z,73.50
2022-10-26T05:27:07.864Z,73.70
2022-10-26T05:29:38.101Z,73.10
2022-10-26T05:32:08.335Z,73.00
2022-10-26T05:34:40.862Z,74.30
2022-10-26T05:37:11.504Z,74.60
2022-10-26T05:39:41.417Z,74.30
2022-10-26T05:42:11.401Z,73.00
2022-10-26T05:44:40.559Z,74.30
2022-10-26T05:47:10.461Z,72.70
2022-10-26T05:49:40.582Z,72.50
2022-10-26T05:52:10.435Z,72.60
2022-10-26T05:54:40.426Z,72.10
2022-10-26T05:57:13.276Z,73.10
2022-10-26T05:59:44.360Z,72.70
2022-10-26T06:02:42.717Z,71.60
2022-10-26T06:05:20.448Z,72.80
2022-10-26T06:07:50.898Z,72.60
2022-10-26T06:10:21.581Z,74.10
2022-10-26T06:12:51.926Z,74.90
2022-10-26T06:15:24.328Z,71.30
2022-10-26T06:18:23.889Z,73.70
2022-10-26T06:34:41.965Z,76.90
2022-10-26T06:37:12.462Z,76.80
2022-10-26T06:39:50.106Z,77.20
2022-10-26T06:42:22.828Z,74.40
2022-10-26T06:44:53.061Z,72.30
2022-10-26T06:47:36.275Z,72.70
2022-10-26T06:50:24.404Z,73.00
2022-10-26T06:53:21.803Z,73.00
2022-10-26T06:55:53.654Z,72.60
2022-10-26T06:58:26.721Z,71.60
2022-10-26T07:00:57.547Z,70.10
2022-10-26T07:03:27.387Z,70.90
2022-10-26T07:05:57.442Z,70.60
2022-10-26T07:08:27.579Z,68.80
2022-10-26T07:10:57.461Z,69.10
2022-10-26T07:13:26.741Z,68.60
2022-10-26T07:15:56.722Z,69.40
2022-10-26T07:18:25.966Z,68.30
2022-10-26T07:20:55.752Z,69.10
2022-10-26T07:23:26.426Z,70.10
2022-10-26T07:25:56.328Z,69.80
2022-10-26T07:28:26.236Z,67.70
2022-10-26T07:30:56.336Z,66.20
2022-10-26T07:33:27.114Z,68.00
2022-10-26T07:35:57.705Z,68.40
2022-10-26T07:38:28.190Z,66.50
2022-10-26T07:40:58.045Z,65.90
2022-10-26T07:43:27.959Z,66.00
2022-10-26T07:45:57.259Z,66.00
2022-10-26T07:48:27.083Z,66.00
2022-10-26T07:50:57.053Z,66.80
2022-10-26T07:53:28.001Z,65.50
2022-10-26T07:55:59.737Z,65.40
2022-10-26T07:58:29.958Z,64.80
2022-10-26T08:00:59.992Z,64.00
2022-10-26T08:03:30.006Z,64.30
2022-10-26T08:06:00.107Z,62.80
2022-10-26T08:08:30.023Z,64.90
2022-10-26T08:10:59.576Z,64.10
2022-10-26T08:13:29.617Z,64.70
2022-10-26T08:16:01.690Z,65.00
2022-10-26T08:18:31.766Z,65.40
2022-10-26T08:21:11.334Z,64.90
2022-10-26T08:23:42.959Z,65.50
2022-10-26T08:26:13.594Z,71.00
2022-10-26T08:28:44.680Z,71.60
2022-10-26T08:31:14.903Z,71.90
2022-10-26T08:33:45.407Z,71.80
2022-10-26T08:36:21.853Z,72.90
2022-10-26T08:38:52.400Z,72.90
2022-10-26T08:41:35.872Z,72.50
2022-10-26T08:44:27.153Z,73.10
2022-10-26T08:47:16.336Z,73.60
2022-10-26T08:50:01.351Z,73.20
2022-10-26T08:53:05.848Z,74.30
2022-10-26T08:55:44.988Z,73.90
2022-10-26T08:58:21.133Z,74.10
2022-10-26T09:00:55.334Z,73.50
2022-10-26T09:03:26.871Z,73.20
2022-10-26T09:06:18.577Z,74.10
2022-10-26T09:09:16.073Z,73.10
2022-10-26T09:12:14.778Z,73.70
2022-10-26T09:15:05.832Z,74.60
2022-10-26T09:17:53.939Z,74.60
2022-10-26T09:20:50.009Z,74.50
2022-10-26T09:23:55.008Z,75.30
2022-10-26T09:26:35.455Z,76.80
2022-10-26T09:29:10.110Z,78.40
2022-10-26T09:31:46.873Z,78.20
2022-10-26T09:34:33.351Z,78.70
2022-10-26T09:37:15.307Z,79.00
2022-10-26T09:40:12.358Z,79.80
2022-10-26T09:43:12.173Z,79.60
2022-10-26T09:45:50.936Z,80.60
2022-10-26T09:48:50.869Z,80.90
2022-10-26T09:51:20.947Z,81.40
2022-10-26T09:53:53.157Z,81.90
2022-10-26T09:56:23.919Z,82.30
2022-10-26T09:59:04.271Z,82.10
2022-10-26T10:01:42.369Z,82.80
2022-10-26T10:04:27.317Z,83.20
2022-10-26T10:07:21.469Z,83.20
2022-10-26T10:10:10.687Z,83.80
2022-10-26T10:12:42.236Z,83.40
2022-10-26T10:15:26.007Z,83.50
2022-10-26T10:17:58.561Z,83.10
2022-10-26T10:20:35.092Z,84.00
2022-10-26T10:23:07.065Z,84.90
2022-10-26T10:25:42.041Z,85.10
2022-10-26T10:28:27.311Z,85.60
2022-10-26T10:31:01.545Z,86.00
2022-10-26T10:33:42.519Z,85.20
2022-10-26T10:36:21.343Z,86.10
2022-10-26T10:38:53.674Z,86.60
2022-10-26T10:41:34.227Z,86.80
2022-10-26T10:44:18.870Z,87.40
2022-10-26T10:46:49.947Z,87.70
2022-10-26T10:49:27.770Z,88.80
2022-10-26T10:51:59.712Z,88.70
2022-10-26T10:54:36.527Z,88.40
2022-10-26T10:57:36.277Z,89.10
2022-10-26T11:00:13.311Z,89.50
2022-10-26T11:03:07.255Z,89.80
2022-10-26T11:06:02.771Z,90.00
2022-10-26T11:08:40.326Z,90.00
2022-10-26T11:11:17.557Z,90.20
2022-10-26T11:14:20.032Z,90.20
2022-10-26T11:16:58.343Z,90.50
2022-10-26T11:19:56.349Z,90.40
2022-10-26T11:22:31.921Z,90.60
2022-10-26T11:25:09.799Z,90.70
2022-10-26T11:27:59.879Z,90.60
2022-10-26T11:30:30.902Z,90.50
2022-10-26T11:33:19.733Z,90.30
2022-10-26T11:36:11.209Z,90.40
2022-10-26T11:38:57.105Z,90.60
2022-10-26T11:41:52.518Z,90.80
2022-10-26T11:44:56.193Z,91.20
2022-10-26T11:47:37.543Z,91.30
2022-10-26T11:50:28.997Z,91.30
2022-10-26T11:53:14.983Z,91.40
2022-10-26T11:55:50.228Z,91.60
2022-10-26T11:58:21.765Z,91.60
2022-10-26T12:01:07.115Z,91.80
2022-10-26T12:03:42.443Z,91.90
2022-10-26T12:06:14.611Z,91.90
2022-10-26T12:08:57.046Z,91.90
2022-10-26T12:11:50.063Z,91.90
2022-10-26T12:14:39.909Z,91.80
2022-10-26T12:17:26.177Z,91.70
2022-10-26T12:20:16.035Z,91.90
2022-10-26T12:22:46.982Z,91.90
2022-10-26T12:25:25.712Z,91.80
2022-10-26T12:27:58.738Z,91.80
2022-10-26T12:30:35.776Z,92.10
2022-10-26T12:33:27.032Z,92.10
2022-10-26T12:35:57.518Z,92.10
2022-10-26T12:39:06.599Z,92.10
2022-10-26T12:41:41.358Z,92.20
2022-10-26T12:44:43.253Z,92.20
2022-10-26T12:47:32.248Z,92.10
2022-10-26T12:50:22.000Z,92.20
2022-10-26T12:52:59.333Z,92.20
2022-10-26T12:55:53.639Z,92.20
2022-10-26T12:58:51.293Z,92.20
2022-10-26T13:01:46.412Z,92.20
2022-10-26T13:04:42.640Z,92.20
2022-10-26T13:07:23.636Z,92.20
2022-10-26T13:10:08.364Z,92.30
2022-10-26T13:12:51.030Z,92.40
2022-10-26T13:15:41.877Z,92.30
2022-10-26T13:18:21.270Z,92.30
2022-10-26T13:21:21.744Z,92.50
2022-10-26T13:24:09.023Z,92.50
2022-10-26T13:27:18.224Z,92.40
2022-10-26T13:30:20.385Z,92.40
2022-10-26T13:32:59.467Z,92.40
2022-10-26T13:35:30.787Z,92.40
2022-10-26T13:38:05.003Z,92.30
2022-10-26T13:40:39.382Z,92.40
2022-10-26T13:43:17.211Z,92.40
2022-10-26T13:46:05.605Z,92.40
2022-10-26T13:48:43.102Z,92.60
2022-10-26T13:51:23.677Z,92.50
2022-10-26T13:54:02.927Z,92.70
2022-10-26T13:57:06.768Z,92.60
2022-10-26T13:59:44.127Z,92.70
2022-10-26T14:02:28.427Z,92.50
2022-10-26T14:05:07.714Z,92.60
2022-10-26T14:07:57.611Z,92.70
2022-10-26T14:10:32.509Z,92.50
2022-10-26T14:13:03.834Z,92.40
2022-10-26T14:15:36.448Z,92.40
2022-10-26T14:18:07.896Z,92.40
2022-10-26T14:20:38.363Z,92.30
2022-10-26T14:23:27.417Z,92.10
2022-10-26T14:25:59.407Z,92.10
2022-10-26T14:28:35.162Z,92.20
2022-10-26T14:31:27.712Z,92.30
2022-10-26T14:33:59.729Z,92.50
2022-10-26T14:36:37.886Z,92.50
2022-10-26T14:39:19.662Z,92.50
2022-10-26T14:41:51.650Z,92.70
2022-10-26T14:44:26.032Z,92.80
2022-10-26T14:46:56.651Z,92.90
2022-10-26T14:49:29.758Z,92.80
2022-10-26T14:52:06.445Z,92.90
2022-10-26T14:54:38.021Z,92.80
2022-10-26T14:57:10.876Z,92.90
2022-10-26T14:59:44.643Z,92.90
2022-10-26T15:02:22.482Z,93.10
2022-10-26T15:05:34.733Z,93.10
2022-10-26T15:08:06.154Z,93.30
2022-10-26T15:10:52.355Z,93.30
2022-10-26T15:13:30.079Z,93.40
2022-10-26T15:16:21.982Z,93.40
2022-10-26T15:18:57.988Z,93.30
2022-10-26T15:21:33.769Z,93.40
2022-10-26T15:24:04.833Z,93.50
2022-10-26T15:26:35.255Z,93.60
2022-10-26T15:29:05.491Z,93.70
2022-10-26T15:31:36.059Z,93.70
2022-10-26T15:34:16.450Z,93.70
2022-10-26T15:36:46.882Z,93.90
2022-10-26T15:39:17.187Z,93.90
2022-10-26T15:41:49.017Z,93.90
2022-10-26T15:44:24.404Z,94.10
2022-10-26T15:46:55.503Z,94.10
2022-10-26T15:49:26.193Z,94.00
2022-10-26T15:51:58.247Z,94.00
2022-10-26T15:54:28.637Z,93.90
2022-10-26T15:56:59.727Z,93.90
2022-10-26T15:59:30.090Z,93.80
2022-10-26T16:02:00.020Z,94.00
2022-10-26T16:04:30.530Z,94.00
2022-10-26T16:07:04.557Z,94.00
2022-10-26T16:09:35.003Z,94.00
2022-10-26T16:12:05.472Z,94.10
2022-10-26T16:14:53.362Z,94.10
2022-10-26T16:17:27.638Z,94.20
2022-10-26T16:19:58.215Z,94.20
2022-10-26T16:22:28.629Z,94.20
2022-10-26T16:24:59.130Z,94.30
2022-10-26T16:27:29.560Z,94.20
2022-10-26T16:29:59.772Z,94.30
2022-10-26T16:32:29.526Z,94.30
2022-10-26T16:34:59.981Z,94.30
2022-10-26T16:37:33.422Z,94.20
2022-10-26T16:40:03.881Z,94.20
2022-10-26T16:42:34.836Z,94.30
2022-10-26T16:45:06.560Z,94.30
2022-10-26T16:47:39.229Z,94.30
2022-10-26T16:50:11.742Z,94.40
2022-10-26T16:52:42.384Z,94.40
2022-10-26T16:55:13.797Z,94.40
2022-10-26T16:57:44.712Z,94.30
2022-10-26T17:00:15.975Z,94.30
2022-10-26T17:02:46.448Z,94.20
2022-10-26T17:05:17.928Z,94.30
2022-10-26T17:07:50.338Z,94.30
2022-10-26T17:10:21.080Z,94.30
2022-10-26T17:12:51.931Z,94.40
2022-10-26T17:15:24.242Z,94.40
2022-10-26T17:17:58.152Z,94.30
2022-10-26T17:20:27.993Z,94.20
2022-10-26T17:23:00.281Z,94.00
2022-10-26T17:25:30.853Z,94.00
2022-10-26T17:28:01.571Z,94.00
2022-10-26T17:30:34.924Z,94.10
2022-10-26T17:33:05.941Z,94.30
2022-10-26T17:35:39.040Z,94.40
2022-10-26T17:38:09.460Z,94.40
2022-10-26T17:40:40.003Z,94.40
2022-10-26T17:43:10.278Z,94.40
2022-10-26T17:45:39.954Z,94.60
2022-10-26T17:48:10.390Z,94.70
2022-10-26T17:50:40.033Z,94.60
2022-10-26T17:53:10.418Z,94.80
2022-10-26T17:55:40.986Z,95.00
2022-10-26T17:58:10.674Z,94.60
2022-10-26T18:00:44.704Z,94.60
2022-10-26T18:03:17.118Z,94.80
2022-10-26T18:05:53.478Z,94.80
2022-10-26T18:08:23.779Z,94.90
2022-10-26T18:10:55.424Z,94.90
2022-10-26T18:13:25.996Z,94.80
2022-10-26T18:15:56.396Z,94.90
2022-10-26T18:18:25.998Z,95.00
2022-10-26T18:21:02.280Z,95.00
2022-10-26T18:23:32.539Z,94.90
2022-10-26T18:26:11.188Z,95.10
2022-10-26T18:28:44.038Z,95.20
2022-10-26T18:31:18.387Z,95.30
2022-10-26T18:33:48.767Z,94.90
2022-10-26T18:36:19.967Z,94.90
2022-10-26T18:38:50.752Z,94.50
2022-10-26T18:41:23.085Z,94.50
2022-10-26T18:43:55.186Z,94.50
2022-10-26T18:46:29.684Z,94.30
2022-10-26T18:49:02.763Z,94.40
2022-10-26T18:51:36.576Z,94.40
2022-10-26T18:54:07.184Z,94.40
2022-10-26T18:56:37.649Z,94.40
2022-10-26T18:59:08.170Z,94.20
2022-10-26T19:01:44.280Z,94.30
2022-10-26T19:04:14.873Z,94.40
2022-10-26T19:06:49.384Z,94.40
2022-10-26T19:09:21.303Z,94.30
2022-10-26T19:11:51.663Z,94.40
2022-10-26T19:14:21.275Z,94.50
2022-10-26T19:16:54.440Z,94.30
2022-10-26T19:19:24.723Z,94.10
2022-10-26T19:21:55.158Z,94.10
2022-10-26T19:24:25.319Z,94.40
2022-10-26T19:26:56.255Z,94.50
2022-10-26T19:29:26.473Z,95.00
2022-10-26T19:31:57.922Z,94.80
2022-10-26T19:34:28.334Z,94.70
2022-10-26T19:36:58.103Z,94.90
2022-10-26T19:39:29.685Z,94.90
2022-10-26T19:42:00.163Z,95.00
2022-10-26T19:44:30.508Z,95.00
2022-10-26T19:47:00.282Z,95.30
2022-10-26T19:49:30.800Z,95.50
2022-10-26T19:52:00.557Z,95.20
2022-10-26T19:54:30.943Z,95.00
2022-10-26T19:57:00.797Z,95.00
2022-10-26T19:59:31.033Z,95.00
2022-10-26T20:02:02.465Z,94.90
2022-10-26T20:04:32.703Z,94.90
2022-10-26T20:07:03.026Z,95.00
2022-10-26T20:09:34.876Z,95.00
2022-10-26T20:12:05.258Z,95.00
2022-10-26T20:14:34.937Z,94.90
2022-10-26T20:17:06.925Z,94.90
2022-10-26T20:19:37.204Z,95.00
2022-10-26T20:22:07.593Z,94.90
2022-10-26T20:24:37.274Z,94.50
2022-10-26T20:27:09.325Z,94.30
2022-10-26T20:29:39.533Z,94.20
2022-10-26T20:32:09.918Z,94.20
2022-10-26T20:34:41.451Z,94.30
2022-10-26T20:37:15.365Z,94.60
2022-10-26T20:39:45.846Z,94.70
2022-10-26T20:42:26.936Z,94.80
2022-10-26T20:45:29.668Z,94.80
2022-10-26T20:48:02.043Z,95.00
2022-10-26T20:50:33.432Z,95.00
2022-10-26T20:53:21.039Z,95.20
2022-10-26T20:55:58.093Z,94.80
2022-10-26T20:58:52.851Z,94.70
2022-10-26T21:01:34.500Z,94.60
2022-10-26T21:04:06.715Z,94.60
2022-10-26T21:06:41.945Z,94.50
2022-10-26T21:09:12.383Z,94.60
2022-10-26T21:11:42.767Z,94.80
2022-10-26T21:14:12.515Z,94.70
2022-10-26T21:16:42.906Z,94.60
2022-10-26T21:19:12.547Z,94.60
2022-10-26T21:21:42.993Z,94.60
2022-10-26T21:24:14.387Z,94.50
2022-10-26T21:26:44.588Z,94.50
2022-10-26T21:29:15.070Z,94.50
2022-10-26T21:31:45.358Z,94.40
2022-10-26T21:34:15.532Z,94.40
2022-10-26T21:36:46.033Z,94.30
2022-10-26T21:39:16.247Z,94.30
2022-10-26T21:41:46.563Z,94.20
2022-10-26T21:44:26.015Z,94.40
2022-10-26T21:47:06.848Z,94.40
2022-10-26T21:49:37.061Z,94.30
2022-10-26T21:52:07.490Z,94.30
2022-10-26T21:54:37.767Z,94.20
2022-10-26T21:57:08.151Z,94.10
2022-10-26T21:59:37.807Z,94.20
2022-10-26T22:02:08.389Z,94.40
2022-10-26T22:04:39.587Z,94.50
2022-10-26T22:07:09.937Z,94.70
2022-10-26T22:09:49.407Z,94.80
2022-10-26T22:12:30.075Z,95.10
2022-10-26T22:14:59.729Z,95.20
2022-10-26T22:17:30.079Z,95.30
2022-10-26T22:20:00.513Z,95.30
2022-10-26T22:22:30.188Z,95.30
2022-10-26T22:25:00.525Z,95.50
2022-10-26T22:27:31.809Z,95.50
2022-10-26T22:30:02.076Z,95.50
2022-10-26T22:32:32.317Z,95.40
2022-10-26T22:35:11.273Z,95.30
2022-10-26T22:37:53.256Z,95.20
2022-10-26T22:40:23.152Z,95.30
2022-10-26T22:42:54.767Z,95.20
2022-10-26T22:45:25.020Z,95.30
2022-10-26T22:47:55.257Z,95.40
2022-10-26T22:50:25.595Z,95.40
2022-10-26T22:52:55.904Z,95.40
2022-10-26T22:55:26.336Z,95.50
2022-10-26T22:57:56.360Z,95.50
2022-10-26T23:00:26.612Z,95.60
2022-10-26T23:02:57.034Z,95.60
2022-10-26T23:05:26.803Z,95.60
2022-10-26T23:07:57.201Z,95.60
2022-10-26T23:10:27.299Z,95.40
2022-10-26T23:12:57.784Z,95.40
2022-10-26T23:15:28.803Z,95.30
2022-10-26T23:17:59.448Z,95.30
2022-10-26T23:20:29.882Z,95.30
2022-10-26T23:22:59.523Z,95.40
2022-10-26T23:25:30.938Z,95.40
2022-10-26T23:28:01.302Z,95.40
2022-10-26T23:30:31.147Z,95.30
2022-10-26T23:33:01.517Z,95.50
2022-10-26T23:35:31.498Z,95.50
2022-10-26T23:38:02.945Z,95.50
2022-10-26T23:40:33.339Z,95.40
2022-10-26T23:43:03.976Z,95.50
2022-10-26T23:45:34.468Z,95.60
2022-10-26T23:48:04.168Z,95.80
2022-10-26T23:50:34.505Z,95.80
2022-10-26T23:53:09.209Z,95.90
2022-10-26T23:55:40.000Z,95.80
2022-10-26T23:58:10.339Z,95.80
